Time;durP1;ratioP1;P1;durP2;ratioP2;P2;SDS_P1;SDS_P2;PMS_P1;PMS_P2;Temp;Humidity;BMP_temperature;BMP_pressure;BME280_temperature;BME280_humidity;BME280_pressure;Samples;Min_cycle;Max_cycle;Signal;HPM_P1;HPM_P2
2023/10/31 00:01:58;;;;;;;0.80;0.80;;;15.40;99.90;;;;;;935871;149;27266;-76
2023/10/31 00:04:24;;;;;;;1.52;0.78;;;15.40;99.90;;;;;;938102;148;27362;-77
2023/10/31 00:06:51;;;;;;;0.85;0.85;;;15.30;99.90;;;;;;936722;149;27379;-76
2023/10/31 00:09:17;;;;;;;0.85;0.80;;;15.30;99.90;;;;;;936289;149;27294;-75
2023/10/31 00:11:44;;;;;;;0.95;0.95;;;15.30;99.90;;;;;;937745;149;27359;-76
2023/10/31 00:14:10;;;;;;;0.70;0.70;;;15.30;99.90;;;;;;919367;152;27470;-76
2023/10/31 00:16:37;;;;;;;0.72;0.57;;;15.30;99.90;;;;;;937863;149;27464;-77
2023/10/31 00:19:04;;;;;;;0.85;0.85;;;15.30;99.90;;;;;;918975;152;27356;-77
2023/10/31 00:21:30;;;;;;;1.00;0.98;;;15.20;99.90;;;;;;922914;152;27359;-76
2023/10/31 00:23:57;;;;;;;0.72;0.72;;;15.20;99.90;;;;;;918859;152;27732;-75
2023/10/31 00:26:23;;;;;;;0.80;0.80;;;15.20;99.90;;;;;;917623;152;27332;-76
2023/10/31 00:28:50;;;;;;;1.32;0.62;;;15.20;99.90;;;;;;915935;153;27414;-76
2023/10/31 00:31:17;;;;;;;1.30;0.98;;;15.10;99.90;;;;;;916293;153;27259;-76
2023/10/31 00:33:43;;;;;;;0.60;0.60;;;15.10;99.90;;;;;;914421;153;27758;-77
2023/10/31 00:36:10;;;;;;;0.57;0.57;;;15.10;99.90;;;;;;920596;153;27332;-75
2023/10/31 00:38:36;;;;;;;0.80;0.80;;;15.10;99.90;;;;;;936372;150;27293;-76
2023/10/31 00:41:03;;;;;;;1.20;0.50;;;15.00;99.90;;;;;;937269;149;27417;-76
2023/10/31 00:43:30;;;;;;;0.80;0.80;;;15.00;99.90;;;;;;921631;151;27413;-76
2023/10/31 00:45:56;;;;;;;2.30;0.62;;;15.00;99.90;;;;;;923953;151;27304;-76
2023/10/31 00:48:23;;;;;;;0.57;0.57;;;14.90;99.90;;;;;;921905;151;27382;-75
2023/10/31 00:50:49;;;;;;;0.60;0.60;;;14.90;99.90;;;;;;908557;153;27463;-76
2023/10/31 00:53:16;;;;;;;0.80;0.62;;;14.90;99.90;;;;;;908916;153;27470;-77
2023/10/31 00:55:43;;;;;;;0.47;0.47;;;14.80;99.90;;;;;;909138;153;27321;-81
2023/10/31 00:58:09;;;;;;;0.60;0.60;;;14.80;99.90;;;;;;913347;153;27434;-78
2023/10/31 01:00:37;;;;;;;1.27;0.70;;;14.80;99.90;;;;;;909058;153;27370;-80
2023/10/31 01:03:03;;;;;;;0.62;0.50;;;14.80;99.90;;;;;;911114;153;27417;-80
2023/10/31 01:05:29;;;;;;;1.45;0.45;;;14.80;99.90;;;;;;923858;151;27475;-79
2023/10/31 01:07:55;;;;;;;1.50;0.70;;;14.80;99.90;;;;;;920415;151;27351;-79
2023/10/31 01:10:22;;;;;;;1.65;0.55;;;14.70;99.90;;;;;;921301;151;27421;-80
2023/10/31 01:12:49;;;;;;;0.70;0.70;;;14.70;99.90;;;;;;921553;151;27345;-81
2023/10/31 01:15:15;;;;;;;0.72;0.70;;;14.70;99.90;;;;;;922453;151;27443;-81
2023/10/31 01:17:42;;;;;;;0.70;0.70;;;14.70;99.90;;;;;;922094;151;27354;-81
2023/10/31 01:20:10;;;;;;;0.60;0.60;;;14.70;99.90;;;;;;921219;151;27475;-79
2023/10/31 01:22:35;;;;;;;0.62;0.62;;;14.70;99.90;;;;;;907298;154;27306;-79
2023/10/31 01:25:02;;;;;;;0.90;0.60;;;14.80;99.90;;;;;;897618;154;27570;-76
2023/10/31 01:27:28;;;;;;;1.05;0.60;;;14.70;99.90;;;;;;923170;151;27326;-80
2023/10/31 01:29:55;;;;;;;0.55;0.55;;;14.80;99.90;;;;;;923246;151;27438;-80
2023/10/31 01:32:21;;;;;;;0.60;0.60;;;14.70;99.90;;;;;;911124;153;27389;-76
2023/10/31 01:34:48;;;;;;;1.35;0.78;;;14.70;99.90;;;;;;910847;153;27395;-80
2023/10/31 01:37:15;;;;;;;0.50;0.50;;;14.70;99.90;;;;;;913815;153;27420;-80
2023/10/31 01:39:41;;;;;;;2.77;0.78;;;14.70;99.90;;;;;;912176;153;27392;-80
2023/10/31 01:42:08;;;;;;;0.45;0.45;;;14.70;99.90;;;;;;912749;151;27554;-80
2023/10/31 01:44:34;;;;;;;0.68;0.68;;;14.70;99.90;;;;;;946900;149;28211;-80
2023/10/31 01:47:01;;;;;;;0.50;0.50;;;14.60;99.90;;;;;;946767;149;27402;-80
2023/10/31 01:49:27;;;;;;;0.60;0.50;;;14.60;99.90;;;;;;945018;149;27792;-80
2023/10/31 01:51:54;;;;;;;0.68;0.65;;;14.60;99.90;;;;;;946802;149;27965;-80
2023/10/31 01:54:21;;;;;;;0.80;0.80;;;14.50;99.90;;;;;;949463;149;27680;-81
2023/10/31 01:56:50;;;;;;;0.70;0.70;;;14.40;99.90;;;;;;948348;149;28191;-80
2023/10/31 01:59:14;;;;;;;0.60;0.60;;;14.30;99.90;;;;;;926643;152;27352;-80
2023/10/31 02:01:40;;;;;;;0.70;0.70;;;14.20;99.90;;;;;;926642;152;27317;-79
2023/10/31 02:04:07;;;;;;;0.60;0.60;;;14.20;99.90;;;;;;927831;152;27286;-81
2023/10/31 02:06:34;;;;;;;0.55;0.55;;;14.10;99.90;;;;;;945038;149;27774;-79
2023/10/31 02:09:00;;;;;;;0.80;0.80;;;14.00;99.90;;;;;;928033;153;27318;-80
2023/10/31 02:11:27;;;;;;;1.27;0.78;;;13.90;99.90;;;;;;947811;149;27345;-79
2023/10/31 02:13:53;;;;;;;0.60;0.60;;;13.80;99.90;;;;;;944544;149;27243;-80
2023/10/31 02:16:20;;;;;;;0.50;0.50;;;13.70;99.90;;;;;;927495;152;27364;-76
2023/10/31 02:18:47;;;;;;;2.00;0.90;;;13.70;99.90;;;;;;926534;152;27346;-75
2023/10/31 02:21:13;;;;;;;0.53;0.53;;;13.60;99.90;;;;;;927191;152;27502;-76
2023/10/31 02:23:40;;;;;;;2.90;0.80;;;13.70;99.90;;;;;;944743;149;27371;-77
2023/10/31 02:26:06;;;;;;;0.80;0.70;;;13.60;99.90;;;;;;948713;149;27412;-75
2023/10/31 02:28:33;;;;;;;0.70;0.70;;;13.70;99.90;;;;;;948273;149;27444;-76
2023/10/31 02:31:00;;;;;;;0.82;0.68;;;13.70;99.90;;;;;;945871;149;27397;-76
2023/10/31 02:33:26;;;;;;;0.75;0.60;;;13.70;99.90;;;;;;946109;149;27380;-75
2023/10/31 02:35:53;;;;;;;2.85;0.70;;;13.70;99.90;;;;;;948121;149;27439;-75
2023/10/31 02:38:19;;;;;;;2.20;0.80;;;13.70;99.90;;;;;;946001;149;27368;-76
2023/10/31 02:40:46;;;;;;;0.85;0.55;;;13.70;99.90;;;;;;946587;149;27432;-77
2023/10/31 02:43:12;;;;;;;0.88;0.88;;;13.70;99.90;;;;;;945205;149;27447;-76
2023/10/31 02:45:39;;;;;;;0.62;0.60;;;13.70;99.90;;;;;;943766;149;27424;-76
2023/10/31 02:48:06;;;;;;;1.65;0.53;;;13.80;99.90;;;;;;943488;149;27350;-76
2023/10/31 02:50:32;;;;;;;1.72;0.60;;;13.80;99.90;;;;;;943246;149;27777;-76
2023/10/31 02:52:59;;;;;;;0.50;0.50;;;13.80;99.90;;;;;;924417;153;27404;-76
2023/10/31 02:55:25;;;;;;;1.62;0.80;;;13.80;99.90;;;;;;929140;152;27346;-76
2023/10/31 02:57:52;;;;;;;0.35;0.35;;;13.80;99.90;;;;;;943267;149;27324;-75
2023/10/31 03:00:19;;;;;;;0.70;0.60;;;13.80;99.90;;;;;;944521;149;27813;-76
2023/10/31 03:02:45;;;;;;;0.60;0.60;;;13.80;99.90;;;;;;944184;149;27454;-77
2023/10/31 03:05:12;;;;;;;0.60;0.60;;;13.80;99.90;;;;;;942431;149;27397;-77
2023/10/31 03:07:38;;;;;;;0.60;0.60;;;13.80;99.90;;;;;;944766;149;27461;-77
2023/10/31 03:10:05;;;;;;;3.05;0.65;;;13.90;99.90;;;;;;924269;153;27340;-76
2023/10/31 03:12:32;;;;;;;0.40;0.40;;;13.90;99.90;;;;;;928300;153;27385;-75
2023/10/31 03:14:58;;;;;;;1.65;0.80;;;13.90;99.90;;;;;;931242;151;27352;-78
2023/10/31 03:17:26;;;;;;;3.17;1.02;;;13.90;99.90;;;;;;929775;151;27433;-77
2023/10/31 03:19:51;;;;;;;0.50;0.50;;;13.90;99.90;;;;;;930232;152;27326;-77
2023/10/31 03:22:18;;;;;;;0.53;0.53;;;13.90;99.90;;;;;;928825;151;27335;-77
2023/10/31 03:24:44;;;;;;;1.00;0.50;;;13.90;99.90;;;;;;931114;152;27359;-79
2023/10/31 03:27:11;;;;;;;0.80;0.80;;;13.80;99.90;;;;;;929528;151;28156;-80
2023/10/31 03:29:38;;;;;;;1.17;0.90;;;13.80;99.90;;;;;;930552;151;27304;-79
2023/10/31 03:32:05;;;;;;;0.82;0.78;;;13.80;99.90;;;;;;931931;151;27393;-79
2023/10/31 03:34:31;;;;;;;0.62;0.62;;;13.80;99.90;;;;;;923878;152;27388;-79
2023/10/31 03:36:57;;;;;;;1.10;1.00;;;13.80;99.90;;;;;;926971;152;28032;-79
2023/10/31 03:39:24;;;;;;;1.47;0.90;;;13.80;99.90;;;;;;929148;152;27365;-79
2023/10/31 03:41:51;;;;;;;0.80;0.65;;;13.80;99.90;;;;;;929604;152;27414;-79
2023/10/31 03:44:17;;;;;;;1.37;0.72;;;13.80;99.90;;;;;;931091;151;27481;-76
2023/10/31 03:46:44;;;;;;;0.60;0.60;;;13.80;99.90;;;;;;931274;151;27282;-79
2023/10/31 03:49:10;;;;;;;1.17;1.07;;;13.80;99.90;;;;;;948841;149;27321;-76
2023/10/31 03:51:37;;;;;;;0.70;0.70;;;13.80;99.90;;;;;;945239;149;27473;-76
2023/10/31 03:54:04;;;;;;;2.63;0.73;;;13.80;99.90;;;;;;931315;151;27994;-76
2023/10/31 03:56:30;;;;;;;0.50;0.50;;;13.70;99.90;;;;;;945445;149;27444;-76
2023/10/31 03:58:57;;;;;;;1.02;0.65;;;13.70;99.90;;;;;;930968;152;27731;-76
2023/10/31 04:01:23;;;;;;;0.80;0.80;;;13.70;99.90;;;;;;931978;152;27341;-79
2023/10/31 04:03:50;;;;;;;1.03;0.70;;;13.70;99.90;;;;;;933792;151;27323;-79
2023/10/31 04:06:16;;;;;;;0.70;0.70;;;13.70;99.90;;;;;;933281;151;27402;-80
2023/10/31 04:08:43;;;;;;;0.60;0.60;;;13.60;99.90;;;;;;934331;151;27472;-76
2023/10/31 04:11:10;;;;;;;0.90;0.70;;;13.60;99.90;;;;;;932929;151;27394;-80
2023/10/31 04:13:36;;;;;;;0.70;0.62;;;13.60;99.90;;;;;;933594;151;27335;-80
2023/10/31 04:16:03;;;;;;;0.80;0.80;;;13.50;99.90;;;;;;934523;151;27304;-79
2023/10/31 04:18:29;;;;;;;0.50;0.50;;;13.50;99.90;;;;;;943569;149;27303;-78
2023/10/31 04:20:56;;;;;;;0.60;0.60;;;13.40;99.90;;;;;;932384;151;27320;-80
2023/10/31 04:23:23;;;;;;;3.45;0.55;;;13.40;99.90;;;;;;932901;151;27364;-80
2023/10/31 04:25:49;;;;;;;0.55;0.55;;;13.30;99.90;;;;;;933718;151;27363;-76
2023/10/31 04:28:16;;;;;;;1.63;0.70;;;13.20;99.90;;;;;;927997;152;27425;-75
2023/10/31 04:30:42;;;;;;;1.12;0.85;;;13.20;99.90;;;;;;948947;149;27363;-75
2023/10/31 04:33:09;;;;;;;0.90;0.70;;;13.20;99.90;;;;;;947952;149;27332;-76
2023/10/31 04:35:36;;;;;;;0.72;0.72;;;13.20;99.90;;;;;;946319;149;27311;-77
2023/10/31 04:38:02;;;;;;;0.70;0.70;;;13.10;99.90;;;;;;944530;149;27327;-77
2023/10/31 04:40:29;;;;;;;0.70;0.70;;;13.10;99.90;;;;;;927122;152;27307;-77
2023/10/31 04:42:55;;;;;;;0.85;0.70;;;13.10;99.90;;;;;;927878;152;27499;-78
2023/10/31 04:45:22;;;;;;;1.00;0.87;;;13.00;99.90;;;;;;949338;148;27422;-77
2023/10/31 04:47:48;;;;;;;0.90;0.90;;;13.10;99.90;;;;;;949859;148;27477;-77
2023/10/31 04:50:15;;;;;;;0.77;0.73;;;13.00;99.90;;;;;;950007;149;27346;-77
2023/10/31 04:52:42;;;;;;;0.80;0.80;;;13.00;99.90;;;;;;946902;148;27379;-77
2023/10/31 04:55:08;;;;;;;0.97;0.93;;;13.00;99.90;;;;;;929919;151;27484;-78
2023/10/31 04:57:35;;;;;;;0.93;0.93;;;13.00;99.90;;;;;;949069;148;27306;-78
2023/10/31 05:00:03;;;;;;;1.13;1.00;;;13.10;99.90;;;;;;950019;148;27654;-78
2023/10/31 05:02:28;;;;;;;1.22;0.95;;;13.10;99.90;;;;;;931528;151;27326;-78
2023/10/31 05:04:55;;;;;;;1.20;0.70;;;13.10;99.90;;;;;;928264;151;27502;-77
2023/10/31 05:07:21;;;;;;;0.83;0.83;;;13.10;99.90;;;;;;950213;148;27266;-77
2023/10/31 05:09:48;;;;;;;1.82;1.00;;;13.20;99.90;;;;;;952229;148;27326;-78
2023/10/31 05:12:14;;;;;;;0.72;0.72;;;13.20;99.90;;;;;;951339;148;27313;-78
2023/10/31 05:14:41;;;;;;;3.08;1.00;;;13.20;99.90;;;;;;946955;148;27444;-77
2023/10/31 05:17:08;;;;;;;1.30;0.82;;;13.30;99.90;;;;;;930620;151;27468;-78
2023/10/31 05:19:34;;;;;;;0.80;0.80;;;13.30;99.90;;;;;;931066;151;27472;-77
2023/10/31 05:22:01;;;;;;;1.30;0.85;;;13.30;99.90;;;;;;927469;151;27394;-77
2023/10/31 05:24:27;;;;;;;0.77;0.77;;;13.40;99.90;;;;;;951622;148;27339;-77
2023/10/31 05:26:54;;;;;;;0.70;0.70;;;13.30;99.90;;;;;;942351;149;27344;-77
2023/10/31 05:29:20;;;;;;;1.45;0.98;;;13.40;99.90;;;;;;952837;148;27947;-77
2023/10/31 05:31:47;;;;;;;0.82;0.82;;;13.40;99.90;;;;;;949478;148;27294;-77
2023/10/31 05:34:14;;;;;;;1.95;0.98;;;13.40;99.90;;;;;;949910;148;27355;-77
2023/10/31 05:36:40;;;;;;;0.82;0.82;;;13.40;99.90;;;;;;949082;148;27373;-77
2023/10/31 05:39:08;;;;;;;1.03;0.93;;;13.40;99.90;;;;;;948057;148;27364;-77
2023/10/31 05:41:36;;;;;;;3.05;1.00;;;13.40;99.90;;;;;;949413;148;27383;-78
2023/10/31 05:44:03;;;;;;;1.80;0.80;;;13.40;99.90;;;;;;931543;151;27518;-78
2023/10/31 05:46:29;;;;;;;0.70;0.70;;;13.40;99.90;;;;;;948708;148;27394;-78
2023/10/31 05:48:56;;;;;;;0.98;0.70;;;13.40;99.90;;;;;;951323;148;27341;-78
2023/10/31 05:51:25;;;;;;;2.85;0.98;;;13.40;99.90;;;;;;950292;148;27409;-78
2023/10/31 05:53:49;;;;;;;1.15;1.02;;;13.40;99.90;;;;;;949288;148;27286;-79
2023/10/31 05:56:16;;;;;;;1.35;0.80;;;13.50;99.90;;;;;;948377;148;27239;-77
2023/10/31 05:58:42;;;;;;;1.27;0.90;;;13.50;99.90;;;;;;949083;148;27374;-77
2023/10/31 06:01:09;;;;;;;0.75;0.75;;;13.50;99.90;;;;;;951523;148;27392;-77
2023/10/31 06:03:35;;;;;;;1.25;0.80;;;13.50;99.90;;;;;;951210;148;27302;-77
2023/10/31 06:06:02;;;;;;;1.55;1.00;;;13.50;99.90;;;;;;949986;148;27414;-79
2023/10/31 06:08:29;;;;;;;0.82;0.68;;;13.50;99.90;;;;;;948562;148;27444;-80
2023/10/31 06:10:58;;;;;;;1.92;0.80;;;13.50;99.90;;;;;;946630;148;27365;-80
2023/10/31 06:13:27;;;;;;;1.12;0.95;;;13.50;99.90;;;;;;947827;148;27375;-79
2023/10/31 06:15:51;;;;;;;1.15;1.00;;;13.50;99.90;;;;;;947562;148;27294;-77
2023/10/31 06:18:17;;;;;;;2.15;1.00;;;13.50;99.90;;;;;;948735;148;27350;-78
2023/10/31 06:20:44;;;;;;;0.70;0.60;;;13.50;99.90;;;;;;931082;151;27360;-78
2023/10/31 06:23:11;;;;;;;1.15;0.78;;;13.60;99.90;;;;;;931890;151;27470;-77
2023/10/31 06:25:37;;;;;;;0.93;0.88;;;13.60;99.90;;;;;;932021;151;27373;-78
2023/10/31 06:28:04;;;;;;;0.60;0.60;;;13.60;99.90;;;;;;947775;148;27425;-77
2023/10/31 06:30:30;;;;;;;5.58;2.35;;;13.60;99.90;;;;;;940458;150;27363;-77
2023/10/31 06:32:57;;;;;;;0.80;0.80;;;13.60;99.90;;;;;;949694;148;27322;-77
2023/10/31 06:35:27;;;;;;;0.72;0.72;;;13.60;99.90;;;;;;950569;148;27377;-77
2023/10/31 06:37:50;;;;;;;0.62;0.62;;;13.60;99.90;;;;;;948100;148;27728;-77
2023/10/31 06:40:17;;;;;;;0.85;0.68;;;13.60;99.90;;;;;;949025;148;27410;-77
2023/10/31 06:42:43;;;;;;;1.07;0.68;;;13.60;99.90;;;;;;948342;148;27361;-77
2023/10/31 06:45:10;;;;;;;0.60;0.60;;;13.60;99.90;;;;;;938445;150;27497;-77
2023/10/31 06:47:36;;;;;;;1.60;1.02;;;13.60;99.90;;;;;;935667;149;27292;-78
2023/10/31 06:50:03;;;;;;;0.80;0.70;;;13.60;99.90;;;;;;937498;149;27400;-77
2023/10/31 06:52:30;;;;;;;1.45;0.88;;;13.60;99.90;;;;;;935904;149;27430;-77
2023/10/31 06:54:56;;;;;;;2.05;1.85;;;13.70;99.90;;;;;;937677;149;27292;-78
2023/10/31 06:57:23;;;;;;;1.15;1.10;;;13.70;99.90;;;;;;936904;150;27360;-78
2023/10/31 06:59:49;;;;;;;1.30;1.20;;;13.70;99.90;;;;;;936218;149;27347;-77
2023/10/31 07:02:16;;;;;;;0.55;0.55;;;13.70;99.90;;;;;;935925;149;27365;-78
2023/10/31 07:04:43;;;;;;;1.00;0.75;;;13.70;99.90;;;;;;918831;152;27361;-78
2023/10/31 07:07:09;;;;;;;2.47;0.70;;;13.70;99.90;;;;;;919371;152;28076;-78
2023/10/31 07:09:36;;;;;;;0.70;0.70;;;13.70;99.90;;;;;;914639;152;27368;-78
2023/10/31 07:12:02;;;;;;;0.82;0.80;;;13.70;99.90;;;;;;934024;150;27257;-78
2023/10/31 07:14:29;;;;;;;1.10;0.72;;;13.80;99.90;;;;;;915605;152;27333;-78
2023/10/31 07:16:55;;;;;;;1.27;0.80;;;13.80;99.90;;;;;;935618;149;28218;-77
2023/10/31 07:19:22;;;;;;;1.65;1.00;;;13.80;99.90;;;;;;914749;153;27477;-77
2023/10/31 07:21:49;;;;;;;0.93;0.93;;;13.80;99.90;;;;;;918712;152;27712;-78
2023/10/31 07:24:15;;;;;;;1.42;1.00;;;13.80;99.90;;;;;;919918;152;27367;-78
2023/10/31 07:26:42;;;;;;;2.47;0.88;;;13.80;99.90;;;;;;936847;149;27300;-78
2023/10/31 07:29:08;;;;;;;0.75;0.75;;;13.80;99.90;;;;;;937095;149;27326;-78
2023/10/31 07:31:38;;;;;;;0.60;0.60;;;13.80;99.90;;;;;;916773;152;27500;-78
2023/10/31 07:34:02;;;;;;;3.27;0.85;;;13.90;99.90;;;;;;936258;150;27324;-78
2023/10/31 07:36:28;;;;;;;0.85;0.85;;;13.90;99.90;;;;;;933903;149;27331;-78
2023/10/31 07:38:55;;;;;;;2.70;1.22;;;13.90;99.90;;;;;;928415;151;27394;-78
2023/10/31 07:41:21;;;;;;;1.55;1.17;;;13.90;99.90;;;;;;930113;150;27357;-78
2023/10/31 07:43:48;;;;;;;1.22;0.90;;;13.90;99.90;;;;;;934410;149;27368;-78
2023/10/31 07:46:15;;;;;;;1.42;0.95;;;13.90;99.90;;;;;;933671;150;27504;-78
2023/10/31 07:48:41;;;;;;;0.80;0.80;;;13.90;99.90;;;;;;934316;150;27959;-77
2023/10/31 07:51:08;;;;;;;2.40;0.93;;;13.90;99.90;;;;;;933848;150;27429;-78
2023/10/31 07:53:34;;;;;;;1.10;0.80;;;14.00;99.90;;;;;;934485;150;27354;-77
2023/10/31 07:56:01;;;;;;;1.20;0.80;;;14.00;99.90;;;;;;932146;150;27711;-78
2023/10/31 07:58:27;;;;;;;0.60;0.60;;;14.00;99.90;;;;;;932461;150;27492;-78
2023/10/31 08:00:54;;;;;;;4.75;1.12;;;14.00;99.90;;;;;;931746;150;27471;-78
2023/10/31 08:03:21;;;;;;;1.15;0.80;;;14.00;99.90;;;;;;932808;150;27365;-78
2023/10/31 08:05:47;;;;;;;0.80;0.80;;;14.00;99.90;;;;;;935024;151;27362;-78
2023/10/31 08:08:14;;;;;;;1.30;0.90;;;14.10;99.90;;;;;;934697;150;27363;-77
2023/10/31 08:10:40;;;;;;;1.12;0.78;;;14.10;99.90;;;;;;934310;150;27359;-77
2023/10/31 08:13:07;;;;;;;2.12;0.75;;;14.10;99.90;;;;;;933697;150;27304;-78
2023/10/31 08:15:34;;;;;;;0.60;0.60;;;14.10;99.90;;;;;;933215;150;27441;-78
2023/10/31 08:18:00;;;;;;;1.62;1.00;;;14.20;99.90;;;;;;935070;150;27333;-78
2023/10/31 08:20:32;;;;;;;0.50;0.50;;;14.20;99.90;;;;;;932797;150;27449;-77
2023/10/31 08:22:53;;;;;;;1.27;0.82;;;14.20;99.90;;;;;;931977;151;27939;-78
2023/10/31 08:25:20;;;;;;;0.70;0.60;;;14.30;99.90;;;;;;936494;150;27429;-77
2023/10/31 08:27:47;;;;;;;1.20;0.75;;;14.30;99.90;;;;;;933720;150;27275;-77
2023/10/31 08:30:14;;;;;;;0.98;0.88;;;14.30;99.90;;;;;;934112;150;27297;-77
2023/10/31 08:32:40;;;;;;;1.87;0.88;;;14.40;99.90;;;;;;935838;150;27476;-77
2023/10/31 08:35:06;;;;;;;1.45;0.90;;;14.50;99.90;;;;;;916842;152;27383;-77
2023/10/31 08:37:33;;;;;;;2.92;0.82;;;14.60;99.90;;;;;;914434;152;27345;-77
2023/10/31 08:40:03;;;;;;;1.55;0.75;;;14.60;99.90;;;;;;931532;151;27331;-77
2023/10/31 08:42:26;;;;;;;1.67;0.80;;;14.70;99.90;;;;;;934022;149;27477;-78
2023/10/31 08:44:53;;;;;;;0.70;0.65;;;14.80;99.90;;;;;;929220;151;27435;-77
2023/10/31 08:47:19;;;;;;;1.17;0.78;;;14.90;99.90;;;;;;929155;151;27494;-78
2023/10/31 08:49:46;;;;;;;0.85;0.82;;;15.00;99.90;;;;;;929198;151;27388;-77
2023/10/31 08:52:13;;;;;;;1.90;0.80;;;15.10;99.90;;;;;;931355;151;27421;-78
2023/10/31 08:54:39;;;;;;;0.75;0.75;;;15.20;99.90;;;;;;929696;151;27359;-77
2023/10/31 08:57:06;;;;;;;0.50;0.50;;;15.40;99.90;;;;;;930481;152;27356;-77
2023/10/31 08:59:32;;;;;;;0.55;0.55;;;15.50;99.90;;;;;;914384;152;27324;-78
2023/10/31 09:01:59;;;;;;;0.50;0.50;;;15.60;99.90;;;;;;914746;153;27385;-79
2023/10/31 09:04:25;;;;;;;0.98;0.72;;;15.80;99.90;;;;;;931673;152;27338;-78
2023/10/31 09:06:52;;;;;;;1.62;0.95;;;15.90;99.90;;;;;;929527;151;27373;-78
2023/10/31 09:09:19;;;;;;;0.45;0.45;;;16.00;99.90;;;;;;927304;152;27385;-78
2023/10/31 09:11:45;;;;;;;1.22;0.60;;;16.20;99.90;;;;;;934677;149;27380;-78
2023/10/31 09:14:12;;;;;;;1.00;0.80;;;16.40;99.90;;;;;;927500;151;27376;-77
2023/10/31 09:16:38;;;;;;;0.53;0.53;;;16.50;99.90;;;;;;926031;149;27379;-78
2023/10/31 09:19:05;;;;;;;0.98;0.70;;;16.70;99.90;;;;;;938089;149;27363;-78
2023/10/31 09:21:32;;;;;;;0.57;0.57;;;16.80;99.90;;;;;;934737;150;27401;-79
2023/10/31 09:23:58;;;;;;;0.62;0.62;;;17.00;99.90;;;;;;937822;149;27361;-78
2023/10/31 09:26:25;;;;;;;1.70;0.60;;;17.10;99.90;;;;;;936611;149;27305;-80
2023/10/31 09:28:51;;;;;;;1.12;0.62;;;17.20;99.90;;;;;;937078;149;27414;-77
2023/10/31 09:31:18;;;;;;;0.60;0.60;;;17.40;99.90;;;;;;936345;149;27338;-78
2023/10/31 09:33:45;;;;;;;0.72;0.40;;;17.50;99.90;;;;;;934969;149;27454;-81
2023/10/31 09:36:12;;;;;;;0.60;0.60;;;17.50;99.90;;;;;;937952;149;27300;-79
2023/10/31 09:38:38;;;;;;;0.60;0.60;;;17.60;99.90;;;;;;918309;152;27377;-79
2023/10/31 09:41:04;;;;;;;0.85;0.72;;;17.70;99.90;;;;;;920783;152;27343;-79
2023/10/31 09:43:31;;;;;;;1.35;0.82;;;17.70;99.90;;;;;;926853;150;27364;-80
2023/10/31 09:45:57;;;;;;;1.70;0.80;;;17.70;99.90;;;;;;918263;151;27489;-77
2023/10/31 09:48:24;;;;;;;2.00;1.60;;;17.70;99.90;;;;;;921934;151;27512;-80
2023/10/31 09:50:52;;;;;;;1.15;0.72;;;17.70;99.90;;;;;;914096;152;27402;-81
2023/10/31 09:53:17;;;;;;;0.90;0.90;;;17.60;99.90;;;;;;919460;152;27317;-81
2023/10/31 09:55:44;;;;;;;0.55;0.55;;;17.60;99.90;;;;;;936464;149;27417;-80
2023/10/31 09:58:10;;;;;;;0.65;0.50;;;17.60;99.90;;;;;;940730;149;27429;-78
2023/10/31 10:00:38;;;;;;;1.65;0.80;;;17.60;99.90;;;;;;935749;150;27346;-78
2023/10/31 10:03:04;;;;;;;0.75;0.68;;;17.60;99.90;;;;;;937062;149;27411;-81
2023/10/31 10:05:31;;;;;;;1.02;0.70;;;17.50;99.90;;;;;;912737;152;27400;-79
2023/10/31 10:07:57;;;;;;;0.53;0.42;;;17.50;99.90;;;;;;931635;149;27344;-79
2023/10/31 10:10:23;;;;;;;0.80;0.80;;;17.50;99.90;;;;;;933890;152;27309;-82
2023/10/31 10:12:50;;;;;;;1.40;0.93;;;17.50;99.90;;;;;;929824;152;27289;-82
2023/10/31 10:15:17;;;;;;;1.02;0.80;;;17.50;99.90;;;;;;915678;152;27345;-81
2023/10/31 10:17:43;;;;;;;1.00;0.78;;;17.60;99.90;;;;;;919845;152;27832;-80
2023/10/31 10:20:10;;;;;;;0.55;0.55;;;17.60;99.90;;;;;;929244;149;27323;-81
2023/10/31 10:22:42;;;;;;;0.60;0.60;;;17.70;99.90;;;;;;934428;151;27721;-80
2023/10/31 10:25:09;;;;;;;1.17;0.70;;;17.80;99.90;;;;;;935070;151;27417;-81
2023/10/31 10:27:36;;;;;;;1.42;0.65;;;17.90;99.90;;;;;;934146;151;27441;-81
2023/10/31 10:30:03;;;;;;;0.85;0.78;;;18.00;99.90;;;;;;935533;151;27313;-81
2023/10/31 10:32:29;;;;;;;1.00;0.60;;;18.10;99.90;;;;;;934149;151;27340;-78
2023/10/31 10:34:55;;;;;;;2.87;0.80;;;18.20;99.90;;;;;;934865;151;27483;-74
2023/10/31 10:37:23;;;;;;;0.50;0.50;;;18.20;99.90;;;;;;934605;150;27365;-73
2023/10/31 10:39:49;;;;;;;0.82;0.72;;;18.20;99.90;;;;;;935066;151;27355;-73
2023/10/31 10:42:15;;;;;;;0.53;0.53;;;18.20;99.70;;;;;;933940;151;27430;-74
2023/10/31 10:44:42;;;;;;;0.70;0.60;;;18.20;99.80;;;;;;934498;151;27391;-76
2023/10/31 10:47:08;;;;;;;0.65;0.65;;;18.30;99.90;;;;;;933539;151;27335;-77
2023/10/31 10:49:35;;;;;;;0.70;0.70;;;18.30;99.90;;;;;;935632;151;27378;-74
2023/10/31 10:52:23;;;;;;;0.70;0.70;;;18.30;99.70;;;;;;934450;151;27370;-74
2023/10/31 10:55:03;;;;;;;0.85;0.85;;;18.40;99.30;;;;;;934980;150;27370;-73
2023/10/31 10:57:46;;;;;;;1.75;0.60;;;18.40;98.60;;;;;;912820;152;27426;-74
2023/10/31 11:00:13;;;;;;;0.88;0.88;;;18.40;98.30;;;;;;911409;153;27383;-74
2023/10/31 11:02:40;;;;;;;0.80;0.80;;;18.30;98.00;;;;;;925077;151;27337;-75
2023/10/31 11:05:07;;;;;;;2.83;0.80;;;18.30;97.50;;;;;;931883;149;27376;-77
2023/10/31 11:07:33;;;;;;;0.90;0.90;;;18.30;97.50;;;;;;936199;149;27348;-73
2023/10/31 11:10:01;;;;;;;2.37;1.00;;;18.20;97.20;;;;;;938725;148;27347;-77
2023/10/31 11:12:26;;;;;;;2.70;1.05;;;18.20;96.80;;;;;;936057;150;27351;-74
2023/10/31 11:14:52;;;;;;;1.10;0.72;;;18.20;96.90;;;;;;915104;152;27397;-77
2023/10/31 11:17:25;;;;;;;1.07;0.88;;;18.20;96.90;;;;;;918765;152;27934;-76
2023/10/31 11:19:51;;;;;;;1.40;0.88;;;18.10;97.00;;;;;;937198;149;27368;-74
2023/10/31 11:22:19;;;;;;;0.37;0.37;;;18.10;96.90;;;;;;928669;151;27423;-74
2023/10/31 11:24:45;;;;;;;0.50;0.50;;;18.10;96.50;;;;;;926718;151;27347;-73
2023/10/31 11:27:11;;;;;;;2.15;1.45;;;18.10;96.40;;;;;;921681;152;27814;-74
2023/10/31 11:29:38;;;;;;;1.40;1.30;;;18.00;96.20;;;;;;919210;152;27453;-74
2023/10/31 11:32:04;;;;;;;0.57;0.57;;;18.00;96.50;;;;;;917113;152;27446;-74
2023/10/31 11:34:31;;;;;;;0.85;0.65;;;18.00;97.00;;;;;;919230;152;27426;-75
2023/10/31 11:37:28;;;;;;;0.90;0.68;;;18.00;96.80;;;;;;930946;152;27338;-73
2023/10/31 11:40:14;;;;;;;1.05;0.72;;;18.00;96.70;;;;;;915046;152;27512;-77
2023/10/31 11:42:40;;;;;;;1.15;1.02;;;18.00;97.10;;;;;;930586;151;27386;-73
2023/10/31 11:45:06;;;;;;;0.95;0.60;;;18.00;97.30;;;;;;931159;149;27466;-80
2023/10/31 11:47:51;;;;;;;0.80;0.62;;;18.00;97.20;;;;;;931416;152;27340;-82
2023/10/31 11:50:18;;;;;;;0.85;0.82;;;18.10;96.70;;;;;;914065;152;27381;-79
2023/10/31 11:52:44;;;;;;;2.85;0.98;;;18.10;96.40;;;;;;933831;149;27381;-80
2023/10/31 11:55:11;;;;;;;0.57;0.55;;;18.10;96.00;;;;;;937760;149;27340;-79
2023/10/31 11:57:37;;;;;;;2.22;0.90;;;18.10;95.90;;;;;;936934;149;27443;-78
2023/10/31 12:00:04;;;;;;;0.88;0.47;;;18.10;95.90;;;;;;938706;149;27389;-78
2023/10/31 12:02:31;;;;;;;3.72;0.60;;;18.10;95.80;;;;;;934583;150;27297;-81
2023/10/31 12:05:09;;;;;;;2.12;0.75;;;18.10;95.50;;;;;;932643;150;27496;-81
2023/10/31 12:07:45;;;;;;;0.60;0.60;;;18.10;95.50;;;;;;935046;150;27464;-80
2023/10/31 12:10:11;;;;;;;0.60;0.60;;;18.20;95.40;;;;;;932313;151;27347;-77
2023/10/31 12:12:38;;;;;;;1.32;0.70;;;18.20;95.00;;;;;;933989;150;27511;-81
2023/10/31 12:15:08;;;;;;;0.80;0.70;;;18.30;95.00;;;;;;932539;150;27411;-81
2023/10/31 12:17:34;;;;;;;0.50;0.50;;;18.30;94.30;;;;;;933645;150;27358;-80
2023/10/31 12:20:07;;;;;;;1.72;0.80;;;18.30;94.10;;;;;;934603;150;27523;-82
2023/10/31 12:22:33;;;;;;;2.58;1.07;;;18.30;93.90;;;;;;935447;151;27340;-81
2023/10/31 12:25:09;;;;;;;3.70;2.52;;;18.30;93.70;;;;;;932587;151;27390;-76
2023/10/31 12:27:47;;;;;;;4.40;2.30;;;18.30;93.80;;;;;;933855;150;27307;-80
2023/10/31 12:30:13;;;;;;;1.50;1.00;;;18.30;93.30;;;;;;932506;150;27371;-76
2023/10/31 12:32:40;;;;;;;1.22;0.80;;;18.30;93.40;;;;;;934783;151;27346;-81
2023/10/31 12:35:07;;;;;;;0.95;0.85;;;18.30;92.80;;;;;;933190;150;27402;-80
2023/10/31 12:37:33;;;;;;;4.95;0.90;;;18.20;92.60;;;;;;934101;150;27351;-81
2023/10/31 12:40:03;;;;;;;1.32;1.00;;;18.20;92.30;;;;;;930764;150;27306;-78
2023/10/31 12:42:30;;;;;;;1.65;0.80;;;18.30;92.10;;;;;;934357;151;27354;-81
2023/10/31 12:44:53;;;;;;;1.15;0.60;;;18.20;92.00;;;;;;933979;150;27367;-81
2023/10/31 12:47:22;;;;;;;1.57;0.88;;;18.20;91.70;;;;;;933194;150;27397;-80